createdAt,value
2022-08-09T00:04:06.366Z,100.00
2022-08-09T00:09:17.940Z,100.00
2022-08-09T00:14:37.927Z,100.00
2022-08-09T00:19:40.631Z,100.00
2022-08-09T00:24:50.142Z,100.00
2022-08-09T00:30:16.168Z,100.00
2022-08-09T00:35:14.587Z,100.00
2022-08-09T00:40:19.817Z,100.00
2022-08-09T00:45:22.037Z,100.00
2022-08-09T00:50:25.452Z,100.00
2022-08-09T00:55:54.212Z,100.00
2022-08-09T01:00:54.911Z,100.00
2022-08-09T01:06:17.608Z,100.00
2022-08-09T01:11:58.699Z,100.00
2022-08-09T01:17:11.758Z,100.00
2022-08-09T01:22:55.682Z,100.00
2022-08-09T01:27:59.891Z,100.00
2022-08-09T01:33:03.285Z,100.00
2022-08-09T01:38:15.325Z,100.00
2022-08-09T01:43:19.116Z,100.00
2022-08-09T01:48:29.784Z,100.00
2022-08-09T01:53:41.518Z,100.00
2022-08-09T01:58:48.965Z,100.00
2022-08-09T02:03:53.587Z,100.00
2022-08-09T02:09:06.884Z,100.00
2022-08-09T02:14:15.785Z,100.00
2022-08-09T02:19:38.912Z,100.00
2022-08-09T02:24:51.864Z,100.00
2022-08-09T02:29:57.977Z,100.00
2022-08-09T02:35:17.421Z,100.00
2022-08-09T02:40:27.110Z,100.00
2022-08-09T02:45:37.632Z,100.00
2022-08-09T02:50:51.900Z,100.00
2022-08-09T02:55:59.942Z,100.00
2022-08-09T03:01:06.175Z,100.00
2022-08-09T03:06:14.810Z,100.00
2022-08-09T03:11:30.132Z,100.00
2022-08-09T03:16:44.939Z,100.00
2022-08-09T03:21:51.578Z,100.00
2022-08-09T03:26:54.197Z,100.00
2022-08-09T03:32:00.413Z,100.00
2022-08-09T03:37:29.236Z,100.00
2022-08-09T03:42:28.838Z,100.00
2022-08-09T03:47:36.685Z,100.00
2022-08-09T03:52:46.060Z,100.00
2022-08-09T03:57:57.474Z,100.00
2022-08-09T04:03:19.596Z,100.00
2022-08-09T04:08:28.917Z,100.00
2022-08-09T04:14:37.214Z,100.00
2022-08-09T04:18:54.619Z,100.00
2022-08-09T04:23:57.713Z,100.00
2022-08-09T04:29:03.676Z,100.00
2022-08-09T04:34:11.865Z,100.00
2022-08-09T04:39:14.594Z,100.00
2022-08-09T04:44:16.799Z,100.00
2022-08-09T04:49:30.223Z,100.00
2022-08-09T04:54:41.373Z,100.00
2022-08-09T04:59:43.846Z,100.00
2022-08-09T05:04:55.255Z,100.00
2022-08-09T05:10:01.174Z,100.00
2022-08-09T05:15:11.871Z,99.22
2022-08-09T05:20:29.534Z,96.14
2022-08-09T05:25:45.741Z,95.03
2022-08-09T05:30:59.687Z,94.87
2022-08-09T05:36:11.722Z,96.27
2022-08-09T05:41:18.791Z,96.69
2022-08-09T05:46:20.934Z,96.91
2022-08-09T05:51:42.269Z,96.85
2022-08-09T05:56:54.699Z,93.45
2022-08-09T06:01:59.045Z,90.48
2022-08-09T06:07:01.695Z,88.71
2022-08-09T06:12:04.221Z,86.89
2022-08-09T06:17:09.298Z,84.16
2022-08-09T06:22:15.400Z,81.22
2022-08-09T06:27:18.213Z,80.16
2022-08-09T06:33:00.857Z,78.38
2022-08-09T06:37:53.346Z,79.21
2022-08-09T06:43:04.104Z,77.05
2022-08-09T06:48:09.936Z,76.24
2022-08-09T06:53:38.245Z,75.73
2022-08-09T07:00:49.824Z,75.72
2022-08-09T07:04:04.356Z,74.36
2022-08-09T07:09:07.529Z,72.12
2022-08-09T07:14:29.800Z,68.99
2022-08-09T07:19:42.353Z,66.33
2022-08-09T07:24:49.214Z,62.88
2022-08-09T07:29:51.920Z,60.63
2022-08-09T07:34:58.816Z,56.19
2022-08-09T07:40:00.961Z,54.85
2022-08-09T07:45:22.597Z,53.41
2022-08-09T07:50:52.730Z,53.20
2022-08-09T07:56:03.624Z,50.63
2022-08-09T08:01:11.370Z,50.24
2022-08-09T08:06:14.326Z,49.38
2022-08-09T08:12:10.983Z,47.81
2022-08-09T08:16:51.078Z,47.56
2022-08-09T08:22:04.869Z,47.62
2022-08-09T08:27:16.589Z,46.99
2022-08-09T08:32:41.686Z,45.75
2022-08-09T08:38:02.043Z,45.88
2022-08-09T08:43:13.635Z,44.82
2022-08-09T08:48:16.860Z,44.31
2022-08-09T08:53:22.376Z,42.86
2022-08-09T08:58:27.381Z,42.97
2022-08-09T09:03:37.582Z,42.81
2022-08-09T09:08:43.041Z,41.02
2022-08-09T09:13:55.736Z,41.17
2022-08-09T09:19:37.044Z,42.57
2022-08-09T09:24:29.059Z,42.52
2022-08-09T09:29:58.111Z,42.52
2022-08-09T09:35:09.930Z,43.40
2022-08-09T09:40:13.074Z,43.88
2022-08-09T09:45:26.281Z,44.22
2022-08-09T09:50:49.575Z,41.65
2022-08-09T09:56:05.557Z,41.03
2022-08-09T10:01:36.758Z,40.27
2022-08-09T10:06:46.758Z,40.15
2022-08-09T10:12:07.742Z,41.26
2022-08-09T10:17:50.489Z,41.23
2022-08-09T10:22:44.009Z,41.81
2022-08-09T10:27:56.685Z,43.01
2022-08-09T10:34:04.981Z,39.84
2022-08-09T10:39:03.325Z,41.41
2022-08-09T10:44:24.967Z,38.99
2022-08-09T10:49:50.829Z,37.65
2022-08-09T10:55:28.749Z,38.82
2022-08-09T11:01:10.909Z,40.14
2022-08-09T11:06:24.729Z,40.11
2022-08-09T11:11:55.683Z,39.68
2022-08-09T11:16:58.692Z,39.96
2022-08-09T11:22:16.558Z,40.47
2022-08-09T11:28:04.669Z,39.63
2022-08-09T11:33:07.913Z,40.53
2022-08-09T11:38:32.472Z,38.52
2022-08-09T11:43:35.764Z,37.92
2022-08-09T11:48:52.828Z,38.74
2022-08-09T11:54:27.733Z,39.36
2022-08-09T11:59:33.629Z,37.91
2022-08-09T12:04:38.130Z,35.73
2022-08-09T12:09:50.937Z,34.69
2022-08-09T12:15:07.323Z,35.96
2022-08-09T12:20:22.177Z,34.40
2022-08-09T12:25:36.582Z,34.31
2022-08-09T12:30:40.029Z,34.62
2022-08-09T12:35:42.862Z,35.37
2022-08-09T12:40:51.759Z,36.50
2022-08-09T12:45:59.568Z,38.09
2022-08-09T12:51:03.950Z,39.25
2022-08-09T12:56:39.225Z,40.87
2022-08-09T13:02:09.672Z,41.13
2022-08-09T13:07:16.889Z,41.26
2022-08-09T13:12:22.355Z,41.60
2022-08-09T13:18:03.480Z,40.51
2022-08-09T13:23:05.539Z,40.77
2022-08-09T13:28:18.992Z,39.96
2022-08-09T13:33:53.194Z,39.48
2022-08-09T13:38:59.847Z,39.62
2022-08-09T13:44:05.311Z,40.83
2022-08-09T13:49:18.272Z,41.37
2022-08-09T13:54:20.678Z,39.43
2022-08-09T13:59:27.915Z,39.62
2022-08-09T14:04:59.291Z,39.59
2022-08-09T14:10:01.755Z,39.33
2022-08-09T14:15:19.677Z,40.83
2022-08-09T14:20:49.306Z,41.15
2022-08-09T14:26:05.858Z,41.00
2022-08-09T14:31:12.338Z,39.93
2022-08-09T14:36:20.265Z,38.39
2022-08-09T14:41:34.748Z,37.36
2022-08-09T14:47:03.085Z,36.53
2022-08-09T14:52:05.198Z,35.96
2022-08-09T14:57:08.059Z,35.05
2022-08-09T15:02:10.323Z,35.63
2022-08-09T15:07:14.620Z,37.79
2022-08-09T15:12:19.172Z,39.65
2022-08-09T15:17:22.924Z,41.61
2022-08-09T15:22:27.457Z,41.57
2022-08-09T15:27:29.496Z,41.62
2022-08-09T15:32:52.658Z,41.16
2022-08-09T15:38:11.789Z,41.01
2022-08-09T15:43:14.349Z,40.45
2022-08-09T15:48:28.753Z,39.00
2022-08-09T15:54:07.904Z,37.55
2022-08-09T15:59:00.785Z,36.43
2022-08-09T16:04:04.554Z,36.73
2022-08-09T16:09:06.764Z,36.88
2022-08-09T16:14:09.155Z,37.81
2022-08-09T16:19:13.442Z,37.54
2022-08-09T16:24:32.864Z,37.32
2022-08-09T16:29:37.342Z,37.53
2022-08-09T16:34:55.910Z,37.61
2022-08-09T16:40:04.648Z,38.13
2022-08-09T16:45:08.644Z,38.32
2022-08-09T16:50:29.251Z,38.66
2022-08-09T16:55:59.951Z,39.17
2022-08-09T17:00:55.557Z,38.86
2022-08-09T17:06:31.727Z,39.97
2022-08-09T17:11:40.591Z,40.20
2022-08-09T17:16:49.098Z,40.56
2022-08-09T17:21:55.471Z,41.15
2022-08-09T17:26:58.506Z,41.80
2022-08-09T17:32:02.081Z,42.83
2022-08-09T17:37:04.804Z,43.36
2022-08-09T17:42:07.354Z,44.42
2022-08-09T17:47:30.099Z,45.59
2022-08-09T17:52:34.029Z,46.69
2022-08-09T17:58:04.049Z,47.88
2022-08-09T18:02:58.964Z,49.34
2022-08-09T18:08:01.145Z,51.13
2022-08-09T18:13:40.798Z,52.84
2022-08-09T18:18:32.800Z,54.84
2022-08-09T18:24:09.447Z,56.72
2022-08-09T18:30:38.838Z,58.72
2022-08-09T18:34:19.230Z,60.73
2022-08-09T18:39:32.154Z,62.38
2022-08-09T18:44:34.776Z,63.78
2022-08-09T18:49:43.215Z,65.10
2022-08-09T18:54:52.129Z,66.35
2022-08-09T19:00:01.671Z,67.78
2022-08-09T19:05:20.437Z,69.23
2022-08-09T19:10:37.280Z,70.57
2022-08-09T19:15:40.476Z,71.73
2022-08-09T19:20:42.715Z,73.13
2022-08-09T19:26:02.051Z,74.49
2022-08-09T19:31:07.885Z,75.56
2022-08-09T19:36:11.831Z,76.63
2022-08-09T19:41:33.295Z,77.83
2022-08-09T19:46:50.298Z,79.16
2022-08-09T19:51:57.078Z,80.09
2022-08-09T19:56:59.162Z,80.91
2022-08-09T20:02:05.323Z,81.75
2022-08-09T20:07:15.931Z,82.99
2022-08-09T20:12:27.211Z,84.13
2022-08-09T20:17:41.601Z,84.88
2022-08-09T20:22:51.077Z,84.60
2022-08-09T20:27:58.445Z,85.02
2022-08-09T20:33:02.589Z,85.74
2022-08-09T20:38:22.171Z,86.66
2022-08-09T20:43:31.331Z,87.23
2022-08-09T20:48:33.273Z,87.72
2022-08-09T20:53:38.846Z,88.41
2022-08-09T20:58:43.463Z,89.39
2022-08-09T21:04:08.181Z,89.91
2022-08-09T21:09:13.442Z,89.84
2022-08-09T21:14:22.873Z,90.48
2022-08-09T21:20:19.096Z,91.34
2022-08-09T21:25:07.740Z,92.50
2022-08-09T21:30:11.662Z,93.73
2022-08-09T21:35:15.101Z,95.05
2022-08-09T21:40:19.484Z,96.20
2022-08-09T21:45:32.784Z,97.69
2022-08-09T21:50:51.605Z,99.03
2022-08-09T21:55:59.931Z,99.70
2022-08-09T22:01:11.653Z,100.00
2022-08-09T22:06:28.061Z,100.00
2022-08-09T22:12:06.815Z,99.88
2022-08-09T22:16:51.882Z,99.98
2022-08-09T22:21:53.739Z,100.00
2022-08-09T22:26:57.540Z,100.00
2022-08-09T22:31:59.693Z,100.00
2022-08-09T22:37:01.852Z,100.00
2022-08-09T22:42:21.276Z,100.00
2022-08-09T22:48:16.875Z,100.00
2022-08-09T22:52:49.133Z,100.00
2022-08-09T22:57:59.797Z,100.00
2022-08-09T23:03:13.067Z,100.00
2022-08-09T23:08:33.570Z,100.00
2022-08-09T23:13:36.190Z,100.00
2022-08-09T23:18:38.568Z,100.00
2022-08-09T23:23:41.064Z,100.00
2022-08-09T23:28:42.928Z,100.00
2022-08-09T23:33:44.912Z,100.00
2022-08-09T23:38:49.255Z,100.00
2022-08-09T23:43:51.457Z,100.00
2022-08-09T23:48:58.460Z,100.00
2022-08-09T23:54:02.020Z,100.00
2022-08-09T23:59:18.482Z,100.00
